sensor_id;sensor_type;location;lat;lon;timestamp;temperature;humidity
49679;DHT22;35570;48.218;16.326;2023-10-13T00:00:26;20.20;93.80
49679;DHT22;35570;48.218;16.326;2023-10-13T00:02:58;20.10;94.40
49679;DHT22;35570;48.218;16.326;2023-10-13T00:05:30;20.10;99.60
49679;DHT22;35570;48.218;16.326;2023-10-13T00:08:00;20.10;99.90
49679;DHT22;35570;48.218;16.326;2023-10-13T00:10:29;20.10;99.90
49679;DHT22;35570;48.218;16.326;2023-10-13T00:12:56;20.20;99.90
49679;DHT22;35570;48.218;16.326;2023-10-13T00:15:41;20.20;99.90
49679;DHT22;35570;48.218;16.326;2023-10-13T00:18:12;20.20;93.20
49679;DHT22;35570;48.218;16.326;2023-10-13T00:20:44;20.10;93.20
49679;DHT22;35570;48.218;16.326;2023-10-13T00:23:15;20.00;93.60
49679;DHT22;35570;48.218;16.326;2023-10-13T00:25:52;20.10;93.00
49679;DHT22;35570;48.218;16.326;2023-10-13T00:28:27;20.00;93.50
49679;DHT22;35570;48.218;16.326;2023-10-13T00:31:01;20.10;93.60
49679;DHT22;35570;48.218;16.326;2023-10-13T00:33:36;20.10;93.80
49679;DHT22;35570;48.218;16.326;2023-10-13T00:36:03;20.10;93.90
49679;DHT22;35570;48.218;16.326;2023-10-13T00:38:30;20.10;94.10
49679;DHT22;35570;48.218;16.326;2023-10-13T00:40:56;20.10;94.20
49679;DHT22;35570;48.218;16.326;2023-10-13T00:43:28;20.10;94.00
49679;DHT22;35570;48.218;16.326;2023-10-13T00:45:58;20.10;94.40
49679;DHT22;35570;48.218;16.326;2023-10-13T00:48:30;20.20;94.00
49679;DHT22;35570;48.218;16.326;2023-10-13T00:51:01;20.20;93.80
49679;DHT22;35570;48.218;16.326;2023-10-13T00:53:32;20.20;93.80
49679;DHT22;35570;48.218;16.326;2023-10-13T00:56:06;20.10;94.10
49679;DHT22;35570;48.218;16.326;2023-10-13T00:58:52;20.10;93.90
49679;DHT22;35570;48.218;16.326;2023-10-13T01:01:19;20.10;93.90
49679;DHT22;35570;48.218;16.326;2023-10-13T01:03:49;20.10;93.90
49679;DHT22;35570;48.218;16.326;2023-10-13T01:06:19;20.10;93.80
49679;DHT22;35570;48.218;16.326;2023-10-13T01:08:46;20.00;93.90
49679;DHT22;35570;48.218;16.326;2023-10-13T01:11:19;19.90;93.70
49679;DHT22;35570;48.218;16.326;2023-10-13T01:13:45;19.90;94.70
49679;DHT22;35570;48.218;16.326;2023-10-13T01:16:19;19.90;95.20
49679;DHT22;35570;48.218;16.326;2023-10-13T01:18:49;19.90;94.60
49679;DHT22;35570;48.218;16.326;2023-10-13T01:21:18;20.00;95.10
49679;DHT22;35570;48.218;16.326;2023-10-13T01:23:52;19.90;94.60
49679;DHT22;35570;48.218;16.326;2023-10-13T01:26:17;19.90;94.90
49679;DHT22;35570;48.218;16.326;2023-10-13T01:28:50;19.90;95.30
49679;DHT22;35570;48.218;16.326;2023-10-13T01:31:16;19.90;96.00
49679;DHT22;35570;48.218;16.326;2023-10-13T01:34:02;19.90;95.80
49679;DHT22;35570;48.218;16.326;2023-10-13T01:36:29;19.90;96.00
49679;DHT22;35570;48.218;16.326;2023-10-13T01:39:00;19.80;96.30
49679;DHT22;35570;48.218;16.326;2023-10-13T01:41:27;19.80;96.60
49679;DHT22;35570;48.218;16.326;2023-10-13T01:43:55;19.70;96.80
49679;DHT22;35570;48.218;16.326;2023-10-13T01:46:22;19.70;97.10
49679;DHT22;35570;48.218;16.326;2023-10-13T01:48:48;19.60;97.60
49679;DHT22;35570;48.218;16.326;2023-10-13T01:51:14;19.70;97.70
49679;DHT22;35570;48.218;16.326;2023-10-13T01:53:40;19.70;97.80
49679;DHT22;35570;48.218;16.326;2023-10-13T01:56:09;19.70;98.30
49679;DHT22;35570;48.218;16.326;2023-10-13T01:58:38;19.70;98.40
49679;DHT22;35570;48.218;16.326;2023-10-13T02:01:07;19.60;98.70
49679;DHT22;35570;48.218;16.326;2023-10-13T02:03:33;19.60;98.50
49679;DHT22;35570;48.218;16.326;2023-10-13T02:05:59;19.60;98.70
49679;DHT22;35570;48.218;16.326;2023-10-13T02:08:30;19.60;99.20
49679;DHT22;35570;48.218;16.326;2023-10-13T02:10:57;19.60;99.30
49679;DHT22;35570;48.218;16.326;2023-10-13T02:13:24;19.70;99.50
49679;DHT22;35570;48.218;16.326;2023-10-13T02:15:54;19.70;99.20
49679;DHT22;35570;48.218;16.326;2023-10-13T02:18:22;19.80;99.50
49679;DHT22;35570;48.218;16.326;2023-10-13T02:21:06;19.80;99.60
49679;DHT22;35570;48.218;16.326;2023-10-13T02:23:39;19.80;99.60
49679;DHT22;35570;48.218;16.326;2023-10-13T02:26:09;19.80;99.60
49679;DHT22;35570;48.218;16.326;2023-10-13T02:28:46;19.70;99.40
49679;DHT22;35570;48.218;16.326;2023-10-13T02:31:17;19.70;99.70
49679;DHT22;35570;48.218;16.326;2023-10-13T02:33:45;19.60;99.80
49679;DHT22;35570;48.218;16.326;2023-10-13T02:36:11;19.50;99.90
49679;DHT22;35570;48.218;16.326;2023-10-13T02:38:47;19.50;99.90
49679;DHT22;35570;48.218;16.326;2023-10-13T02:41:14;19.60;99.90
49679;DHT22;35570;48.218;16.326;2023-10-13T02:43:54;19.70;99.90
49679;DHT22;35570;48.218;16.326;2023-10-13T02:46:20;19.70;99.90
49679;DHT22;35570;48.218;16.326;2023-10-13T02:48:51;19.70;99.90
49679;DHT22;35570;48.218;16.326;2023-10-13T02:51:21;19.70;99.90
49679;DHT22;35570;48.218;16.326;2023-10-13T02:54:02;19.70;99.90
49679;DHT22;35570;48.218;16.326;2023-10-13T02:56:29;19.70;99.90
49679;DHT22;35570;48.218;16.326;2023-10-13T02:58:55;19.70;99.90
49679;DHT22;35570;48.218;16.326;2023-10-13T03:01:23;19.70;99.90
49679;DHT22;35570;48.218;16.326;2023-10-13T03:03:54;19.70;99.90
49679;DHT22;35570;48.218;16.326;2023-10-13T03:06:22;19.70;99.90
49679;DHT22;35570;48.218;16.326;2023-10-13T03:09:06;19.70;99.90
49679;DHT22;35570;48.218;16.326;2023-10-13T03:11:44;19.70;99.90
49679;DHT22;35570;48.218;16.326;2023-10-13T03:14:15;19.70;99.90
49679;DHT22;35570;48.218;16.326;2023-10-13T03:16:55;19.70;99.90
49679;DHT22;35570;48.218;16.326;2023-10-13T03:19:21;19.60;99.90
49679;DHT22;35570;48.218;16.326;2023-10-13T03:21:47;19.60;99.90
49679;DHT22;35570;48.218;16.326;2023-10-13T03:24:22;19.60;99.90
49679;DHT22;35570;48.218;16.326;2023-10-13T03:26:59;19.60;99.90
49679;DHT22;35570;48.218;16.326;2023-10-13T03:29:38;19.60;99.90
49679;DHT22;35570;48.218;16.326;2023-10-13T03:32:12;19.60;99.90
49679;DHT22;35570;48.218;16.326;2023-10-13T03:34:38;19.60;99.90
49679;DHT22;35570;48.218;16.326;2023-10-13T03:37:19;19.70;99.90
49679;DHT22;35570;48.218;16.326;2023-10-13T03:40:10;19.70;99.90
49679;DHT22;35570;48.218;16.326;2023-10-13T03:42:48;19.80;99.90
49679;DHT22;35570;48.218;16.326;2023-10-13T03:48:10;19.80;99.90
49679;DHT22;35570;48.218;16.326;2023-10-13T03:50:53;19.80;99.90
49679;DHT22;35570;48.218;16.326;2023-10-13T03:53:51;19.80;99.90
49679;DHT22;35570;48.218;16.326;2023-10-13T03:56:21;19.90;99.90
49679;DHT22;35570;48.218;16.326;2023-10-13T03:58:56;19.90;99.90
49679;DHT22;35570;48.218;16.326;2023-10-13T04:01:25;19.90;99.90
49679;DHT22;35570;48.218;16.326;2023-10-13T04:03:59;19.90;99.90
49679;DHT22;35570;48.218;16.326;2023-10-13T04:06:36;19.90;99.90
49679;DHT22;35570;48.218;16.326;2023-10-13T04:09:28;19.90;99.90
49679;DHT22;35570;48.218;16.326;2023-10-13T04:12:01;19.90;99.90
49679;DHT22;35570;48.218;16.326;2023-10-13T04:17:11;19.80;99.90
49679;DHT22;35570;48.218;16.326;2023-10-13T04:19:40;19.80;99.90
49679;DHT22;35570;48.218;16.326;2023-10-13T04:22:24;19.70;99.90
49679;DHT22;35570;48.218;16.326;2023-10-13T04:25:15;19.70;99.90
49679;DHT22;35570;48.218;16.326;2023-10-13T04:28:00;19.70;99.90
49679;DHT22;35570;48.218;16.326;2023-10-13T04:30:50;19.70;99.90
49679;DHT22;35570;48.218;16.326;2023-10-13T04:36:15;19.50;99.90
49679;DHT22;35570;48.218;16.326;2023-10-13T04:38:44;19.50;99.90
49679;DHT22;35570;48.218;16.326;2023-10-13T04:41:39;19.40;99.90
49679;DHT22;35570;48.218;16.326;2023-10-13T04:44:13;19.50;99.90
49679;DHT22;35570;48.218;16.326;2023-10-13T04:46:58;19.40;99.90
49679;DHT22;35570;48.218;16.326;2023-10-13T04:49:24;19.40;99.90
49679;DHT22;35570;48.218;16.326;2023-10-13T04:52:03;19.40;99.90
49679;DHT22;35570;48.218;16.326;2023-10-13T04:54:37;19.40;99.90
49679;DHT22;35570;48.218;16.326;2023-10-13T04:57:24;19.40;99.90
49679;DHT22;35570;48.218;16.326;2023-10-13T05:00:08;19.40;99.90
49679;DHT22;35570;48.218;16.326;2023-10-13T05:02:39;19.50;99.90
49679;DHT22;35570;48.218;16.326;2023-10-13T05:05:10;19.40;99.90
49679;DHT22;35570;48.218;16.326;2023-10-13T05:07:45;19.40;99.90
49679;DHT22;35570;48.218;16.326;2023-10-13T05:10:30;19.40;99.90
49679;DHT22;35570;48.218;16.326;2023-10-13T05:13:14;19.40;99.90
49679;DHT22;35570;48.218;16.326;2023-10-13T05:15:58;19.40;99.90
49679;DHT22;35570;48.218;16.326;2023-10-13T05:18:42;19.30;99.90
49679;DHT22;35570;48.218;16.326;2023-10-13T05:21:26;19.30;99.90
49679;DHT22;35570;48.218;16.326;2023-10-13T05:24:10;19.30;99.90
49679;DHT22;35570;48.218;16.326;2023-10-13T05:26:55;19.30;99.90
49679;DHT22;35570;48.218;16.326;2023-10-13T05:29:41;19.30;99.90
49679;DHT22;35570;48.218;16.326;2023-10-13T05:32:25;19.30;99.90
49679;DHT22;35570;48.218;16.326;2023-10-13T05:35:11;19.30;99.90
49679;DHT22;35570;48.218;16.326;2023-10-13T05:37:55;19.40;99.90
49679;DHT22;35570;48.218;16.326;2023-10-13T05:40:39;19.30;99.90
49679;DHT22;35570;48.218;16.326;2023-10-13T05:43:23;19.30;99.90
49679;DHT22;35570;48.218;16.326;2023-10-13T05:46:07;19.30;99.90
49679;DHT22;35570;48.218;16.326;2023-10-13T05:48:51;19.20;99.90
49679;DHT22;35570;48.218;16.326;2023-10-13T05:51:23;19.20;99.90
49679;DHT22;35570;48.218;16.326;2023-10-13T05:54:02;19.20;99.90
49679;DHT22;35570;48.218;16.326;2023-10-13T05:56:44;19.20;99.90
49679;DHT22;35570;48.218;16.326;2023-10-13T05:59:30;19.20;99.90
49679;DHT22;35570;48.218;16.326;2023-10-13T06:02:17;19.20;99.90
49679;DHT22;35570;48.218;16.326;2023-10-13T06:05:02;19.20;99.90
49679;DHT22;35570;48.218;16.326;2023-10-13T06:07:47;19.20;99.90
49679;DHT22;35570;48.218;16.326;2023-10-13T06:10:30;19.30;99.70
49679;DHT22;35570;48.218;16.326;2023-10-13T06:13:15;19.40;99.30
49679;DHT22;35570;48.218;16.326;2023-10-13T06:15:59;19.50;97.50
49679;DHT22;35570;48.218;16.326;2023-10-13T06:18:43;19.70;97.20
49679;DHT22;35570;48.218;16.326;2023-10-13T06:21:27;19.80;96.40
49679;DHT22;35570;48.218;16.326;2023-10-13T06:24:11;19.90;95.40
49679;DHT22;35570;48.218;16.326;2023-10-13T06:26:55;20.00;95.00
49679;DHT22;35570;48.218;16.326;2023-10-13T06:29:39;20.20;94.40
49679;DHT22;35570;48.218;16.326;2023-10-13T06:32:06;20.30;93.10
49679;DHT22;35570;48.218;16.326;2023-10-13T06:34:37;20.40;92.60
49679;DHT22;35570;48.218;16.326;2023-10-13T06:37:06;20.40;92.90
49679;DHT22;35570;48.218;16.326;2023-10-13T06:39:52;20.50;92.70
49679;DHT22;35570;48.218;16.326;2023-10-13T06:42:24;20.50;92.40
49679;DHT22;35570;48.218;16.326;2023-10-13T06:44:56;20.60;91.50
49679;DHT22;35570;48.218;16.326;2023-10-13T06:47:22;20.70;91.40
49679;DHT22;35570;48.218;16.326;2023-10-13T06:49:49;20.80;91.30
49679;DHT22;35570;48.218;16.326;2023-10-13T06:52:20;20.90;91.40
49679;DHT22;35570;48.218;16.326;2023-10-13T06:54:50;21.00;90.80
49679;DHT22;35570;48.218;16.326;2023-10-13T06:57:16;21.20;91.10
49679;DHT22;35570;48.218;16.326;2023-10-13T06:59:46;21.30;90.10
49679;DHT22;35570;48.218;16.326;2023-10-13T07:02:12;21.50;86.40
49679;DHT22;35570;48.218;16.326;2023-10-13T07:04:47;21.70;88.70
49679;DHT22;35570;48.218;16.326;2023-10-13T07:07:13;21.90;87.70
49679;DHT22;35570;48.218;16.326;2023-10-13T07:09:44;22.00;85.60
49679;DHT22;35570;48.218;16.326;2023-10-13T07:12:20;22.00;86.40
49679;DHT22;35570;48.218;16.326;2023-10-13T07:14:52;22.10;85.10
49679;DHT22;35570;48.218;16.326;2023-10-13T07:17:19;22.20;87.70
49679;DHT22;35570;48.218;16.326;2023-10-13T07:19:52;22.50;82.20
49679;DHT22;35570;48.218;16.326;2023-10-13T07:22:25;22.60;81.80
49679;DHT22;35570;48.218;16.326;2023-10-13T07:24:53;22.90;78.90
49679;DHT22;35570;48.218;16.326;2023-10-13T07:27:19;23.10;77.70
49679;DHT22;35570;48.218;16.326;2023-10-13T07:29:53;23.30;78.10
49679;DHT22;35570;48.218;16.326;2023-10-13T07:32:30;23.50;78.90
49679;DHT22;35570;48.218;16.326;2023-10-13T07:34:59;23.60;75.10
49679;DHT22;35570;48.218;16.326;2023-10-13T07:37:32;23.70;73.80
49679;DHT22;35570;48.218;16.326;2023-10-13T07:39:59;23.90;74.10
49679;DHT22;35570;48.218;16.326;2023-10-13T07:42:28;23.90;72.90
49679;DHT22;35570;48.218;16.326;2023-10-13T07:45:05;24.00;73.10
49679;DHT22;35570;48.218;16.326;2023-10-13T07:47:31;24.10;77.40
49679;DHT22;35570;48.218;16.326;2023-10-13T07:49:59;24.30;70.80
49679;DHT22;35570;48.218;16.326;2023-10-13T07:52:24;24.60;74.80
49679;DHT22;35570;48.218;16.326;2023-10-13T07:55:01;24.70;71.20
49679;DHT22;35570;48.218;16.326;2023-10-13T07:57:47;24.80;71.00
49679;DHT22;35570;48.218;16.326;2023-10-13T08:00:24;25.00;91.80
49679;DHT22;35570;48.218;16.326;2023-10-13T08:03:09;25.00;68.70
49679;DHT22;35570;48.218;16.326;2023-10-13T08:05:44;24.90;90.50
49679;DHT22;35570;48.218;16.326;2023-10-13T08:08:29;25.30;90.20
49679;DHT22;35570;48.218;16.326;2023-10-13T08:11:16;25.40;87.60
49679;DHT22;35570;48.218;16.326;2023-10-13T08:13:55;25.40;85.20
49679;DHT22;35570;48.218;16.326;2023-10-13T08:19:16;25.70;95.00
49679;DHT22;35570;48.218;16.326;2023-10-13T08:21:43;25.80;92.10
49679;DHT22;35570;48.218;16.326;2023-10-13T08:24:17;25.90;90.90
49679;DHT22;35570;48.218;16.326;2023-10-13T08:27:04;26.00;86.60
49679;DHT22;35570;48.218;16.326;2023-10-13T08:29:56;26.10;61.70
49679;DHT22;35570;48.218;16.326;2023-10-13T08:32:27;26.20;59.20
49679;DHT22;35570;48.218;16.326;2023-10-13T08:34:57;26.20;59.00
49679;DHT22;35570;48.218;16.326;2023-10-13T08:37:23;26.30;57.90
49679;DHT22;35570;48.218;16.326;2023-10-13T08:42:36;26.70;58.30
49679;DHT22;35570;48.218;16.326;2023-10-13T08:45:15;26.80;57.10
49679;DHT22;35570;48.218;16.326;2023-10-13T08:48:07;27.00;57.80
49679;DHT22;35570;48.218;16.326;2023-10-13T08:50:38;27.10;56.20
49679;DHT22;35570;48.218;16.326;2023-10-13T08:53:26;27.20;56.00
49679;DHT22;35570;48.218;16.326;2023-10-13T08:56:22;28.80;62.80
49679;DHT22;35570;48.218;16.326;2023-10-13T08:58:59;27.50;66.50
49679;DHT22;35570;48.218;16.326;2023-10-13T09:01:34;28.20;74.40
49679;DHT22;35570;48.218;16.326;2023-10-13T09:04:18;27.60;76.00
49679;DHT22;35570;48.218;16.326;2023-10-13T09:07:03;27.50;76.10
49679;DHT22;35570;48.218;16.326;2023-10-13T09:12:16;27.50;73.90
49679;DHT22;35570;48.218;16.326;2023-10-13T09:14:51;27.50;73.60
49679;DHT22;35570;48.218;16.326;2023-10-13T09:17:31;27.40;71.60
49679;DHT22;35570;48.218;16.326;2023-10-13T09:22:55;27.60;71.20
49679;DHT22;35570;48.218;16.326;2023-10-13T09:25:31;27.30;70.90
49679;DHT22;35570;48.218;16.326;2023-10-13T09:28:19;27.60;70.60
49679;DHT22;35570;48.218;16.326;2023-10-13T09:30:51;27.60;69.20
49679;DHT22;35570;48.218;16.326;2023-10-13T09:33:27;27.70;71.40
49679;DHT22;35570;48.218;16.326;2023-10-13T09:36:01;27.70;59.90
49679;DHT22;35570;48.218;16.326;2023-10-13T09:38:32;27.90;59.70
49679;DHT22;35570;48.218;16.326;2023-10-13T09:40:58;28.10;59.80
49679;DHT22;35570;48.218;16.326;2023-10-13T09:43:27;28.40;60.00
49679;DHT22;35570;48.218;16.326;2023-10-13T09:45:59;28.60;55.40
49679;DHT22;35570;48.218;16.326;2023-10-13T09:48:37;28.60;56.40
49679;DHT22;35570;48.218;16.326;2023-10-13T09:51:12;28.80;57.70
49679;DHT22;35570;48.218;16.326;2023-10-13T09:53:42;30.90;79.40
49679;DHT22;35570;48.218;16.326;2023-10-13T09:56:24;29.20;78.80
49679;DHT22;35570;48.218;16.326;2023-10-13T09:59:14;29.60;68.10
49679;DHT22;35570;48.218;16.326;2023-10-13T10:01:43;29.50;69.00
49679;DHT22;35570;48.218;16.326;2023-10-13T10:04:22;29.70;67.50
49679;DHT22;35570;48.218;16.326;2023-10-13T10:06:59;29.90;60.60
49679;DHT22;35570;48.218;16.326;2023-10-13T10:09:30;30.10;59.70
49679;DHT22;35570;48.218;16.326;2023-10-13T10:17:22;30.60;51.90
49679;DHT22;35570;48.218;16.326;2023-10-13T10:19:53;30.70;48.90
49679;DHT22;35570;48.218;16.326;2023-10-13T10:25:03;31.80;61.30
49679;DHT22;35570;48.218;16.326;2023-10-13T10:27:32;32.70;47.80
49679;DHT22;35570;48.218;16.326;2023-10-13T10:30:00;33.40;44.90
49679;DHT22;35570;48.218;16.326;2023-10-13T10:32:36;33.70;52.70
49679;DHT22;35570;48.218;16.326;2023-10-13T10:35:09;33.80;52.10
49679;DHT22;35570;48.218;16.326;2023-10-13T10:37:41;34.10;53.10
49679;DHT22;35570;48.218;16.326;2023-10-13T10:40:13;34.10;70.60
49679;DHT22;35570;48.218;16.326;2023-10-13T10:42:59;33.90;44.00
49679;DHT22;35570;48.218;16.326;2023-10-13T10:45:36;33.90;42.70
49679;DHT22;35570;48.218;16.326;2023-10-13T10:48:02;33.80;44.00
49679;DHT22;35570;48.218;16.326;2023-10-13T10:50:44;33.60;43.00
49679;DHT22;35570;48.218;16.326;2023-10-13T10:53:10;33.60;43.30
49679;DHT22;35570;48.218;16.326;2023-10-13T10:55:38;33.90;44.60
49679;DHT22;35570;48.218;16.326;2023-10-13T10:58:04;34.10;43.60
49679;DHT22;35570;48.218;16.326;2023-10-13T11:00:32;34.40;43.20
49679;DHT22;35570;48.218;16.326;2023-10-13T11:03:12;34.50;43.50
49679;DHT22;35570;48.218;16.326;2023-10-13T11:05:47;34.30;42.60
49679;DHT22;35570;48.218;16.326;2023-10-13T11:08:25;34.10;42.40
49679;DHT22;35570;48.218;16.326;2023-10-13T11:10:58;34.10;43.30
49679;DHT22;35570;48.218;16.326;2023-10-13T11:13:25;34.00;42.90
49679;DHT22;35570;48.218;16.326;2023-10-13T11:15:56;34.10;43.50
49679;DHT22;35570;48.218;16.326;2023-10-13T11:18:29;34.30;42.80
49679;DHT22;35570;48.218;16.326;2023-10-13T11:20:59;34.60;42.50
49679;DHT22;35570;48.218;16.326;2023-10-13T11:23:25;34.60;42.20
49679;DHT22;35570;48.218;16.326;2023-10-13T11:26:00;34.70;42.30
49679;DHT22;35570;48.218;16.326;2023-10-13T11:28:26;34.70;42.30
49679;DHT22;35570;48.218;16.326;2023-10-13T11:30:58;34.70;40.70
49679;DHT22;35570;48.218;16.326;2023-10-13T11:33:25;34.60;41.90
49679;DHT22;35570;48.218;16.326;2023-10-13T11:35:55;34.60;43.20
49679;DHT22;35570;48.218;16.326;2023-10-13T11:38:32;34.50;40.20
49679;DHT22;35570;48.218;16.326;2023-10-13T11:41:16;34.50;43.00
49679;DHT22;35570;48.218;16.326;2023-10-13T11:46:17;34.20;41.20
49679;DHT22;35570;48.218;16.326;2023-10-13T11:49:04;34.10;41.40
49679;DHT22;35570;48.218;16.326;2023-10-13T11:51:42;34.40;43.00
49679;DHT22;35570;48.218;16.326;2023-10-13T11:54:13;35.00;43.20
49679;DHT22;35570;48.218;16.326;2023-10-13T11:56:38;35.60;39.80
49679;DHT22;35570;48.218;16.326;2023-10-13T11:59:04;35.70;39.60
49679;DHT22;35570;48.218;16.326;2023-10-13T12:01:31;35.60;39.50
49679;DHT22;35570;48.218;16.326;2023-10-13T12:04:16;35.50;39.60
49679;DHT22;35570;48.218;16.326;2023-10-13T12:07:00;35.60;39.10
49679;DHT22;35570;48.218;16.326;2023-10-13T12:09:43;35.50;38.70
49679;DHT22;35570;48.218;16.326;2023-10-13T12:12:24;35.30;38.60
49679;DHT22;35570;48.218;16.326;2023-10-13T12:14:50;35.20;39.80
49679;DHT22;35570;48.218;16.326;2023-10-13T12:19:54;35.10;40.10
49679;DHT22;35570;48.218;16.326;2023-10-13T12:22:20;35.20;41.00
49679;DHT22;35570;48.218;16.326;2023-10-13T12:25:01;35.30;39.70
49679;DHT22;35570;48.218;16.326;2023-10-13T12:27:30;35.40;38.10
49679;DHT22;35570;48.218;16.326;2023-10-13T12:30:11;35.30;40.00
49679;DHT22;35570;48.218;16.326;2023-10-13T12:32:40;35.30;39.40
49679;DHT22;35570;48.218;16.326;2023-10-13T12:35:10;35.20;39.50
49679;DHT22;35570;48.218;16.326;2023-10-13T12:37:36;35.10;41.10
49679;DHT22;35570;48.218;16.326;2023-10-13T12:40:04;35.20;41.20
49679;DHT22;35570;48.218;16.326;2023-10-13T12:42:49;35.00;41.50
49679;DHT22;35570;48.218;16.326;2023-10-13T12:45:33;35.10;40.80
49679;DHT22;35570;48.218;16.326;2023-10-13T12:48:22;35.10;40.20
49679;DHT22;35570;48.218;16.326;2023-10-13T12:51:06;34.80;40.00
49679;DHT22;35570;48.218;16.326;2023-10-13T12:53:50;34.70;40.00
49679;DHT22;35570;48.218;16.326;2023-10-13T12:56:17;34.60;41.20
49679;DHT22;35570;48.218;16.326;2023-10-13T12:58:44;34.80;40.90
49679;DHT22;35570;48.218;16.326;2023-10-13T13:01:20;34.80;40.50
49679;DHT22;35570;48.218;16.326;2023-10-13T13:03:50;34.40;40.10
49679;DHT22;35570;48.218;16.326;2023-10-13T13:06:17;34.10;41.10
49679;DHT22;35570;48.218;16.326;2023-10-13T13:08:44;33.90;42.20
49679;DHT22;35570;48.218;16.326;2023-10-13T13:11:10;33.40;42.10
49679;DHT22;35570;48.218;16.326;2023-10-13T13:13:36;33.10;43.20
49679;DHT22;35570;48.218;16.326;2023-10-13T13:16:02;33.00;45.10
49679;DHT22;35570;48.218;16.326;2023-10-13T13:18:29;33.00;43.90
49679;DHT22;35570;48.218;16.326;2023-10-13T13:20:54;33.00;45.40
49679;DHT22;35570;48.218;16.326;2023-10-13T13:23:23;33.10;45.40
49679;DHT22;35570;48.218;16.326;2023-10-13T13:25:52;33.20;43.90
49679;DHT22;35570;48.218;16.326;2023-10-13T13:28:18;33.30;42.10
49679;DHT22;35570;48.218;16.326;2023-10-13T13:30:44;33.30;44.20
49679;DHT22;35570;48.218;16.326;2023-10-13T13:33:11;33.40;44.30
49679;DHT22;35570;48.218;16.326;2023-10-13T13:35:38;33.20;42.70
49679;DHT22;35570;48.218;16.326;2023-10-13T13:38:04;33.10;43.60
49679;DHT22;35570;48.218;16.326;2023-10-13T13:40:39;33.20;43.60
49679;DHT22;35570;48.218;16.326;2023-10-13T13:43:05;33.40;44.30
49679;DHT22;35570;48.218;16.326;2023-10-13T13:45:32;33.50;44.70
49679;DHT22;35570;48.218;16.326;2023-10-13T13:48:00;33.60;43.20
49679;DHT22;35570;48.218;16.326;2023-10-13T13:50:33;33.50;42.00
49679;DHT22;35570;48.218;16.326;2023-10-13T13:53:04;33.40;42.90
49679;DHT22;35570;48.218;16.326;2023-10-13T13:55:34;33.30;43.40
49679;DHT22;35570;48.218;16.326;2023-10-13T13:58:00;33.20;43.80
49679;DHT22;35570;48.218;16.326;2023-10-13T14:00:26;33.00;43.60
49679;DHT22;35570;48.218;16.326;2023-10-13T14:03:07;32.80;44.00
49679;DHT22;35570;48.218;16.326;2023-10-13T14:05:57;32.70;43.90
49679;DHT22;35570;48.218;16.326;2023-10-13T14:08:24;32.60;44.40
49679;DHT22;35570;48.218;16.326;2023-10-13T14:10:51;32.60;45.00
49679;DHT22;35570;48.218;16.326;2023-10-13T14:13:43;32.60;45.70
49679;DHT22;35570;48.218;16.326;2023-10-13T14:16:19;32.60;44.80
49679;DHT22;35570;48.218;16.326;2023-10-13T14:18:49;32.50;43.80
49679;DHT22;35570;48.218;16.326;2023-10-13T14:21:17;32.30;45.30
49679;DHT22;35570;48.218;16.326;2023-10-13T14:23:48;32.30;44.30
49679;DHT22;35570;48.218;16.326;2023-10-13T14:26:18;32.20;44.10
49679;DHT22;35570;48.218;16.326;2023-10-13T14:28:47;32.10;47.60
49679;DHT22;35570;48.218;16.326;2023-10-13T14:31:27;31.70;44.30
49679;DHT22;35570;48.218;16.326;2023-10-13T14:33:52;31.60;44.60
49679;DHT22;35570;48.218;16.326;2023-10-13T14:36:19;31.40;45.00
49679;DHT22;35570;48.218;16.326;2023-10-13T14:38:46;31.40;46.30
49679;DHT22;35570;48.218;16.326;2023-10-13T14:41:18;31.30;45.50
49679;DHT22;35570;48.218;16.326;2023-10-13T14:43:44;31.40;46.90
49679;DHT22;35570;48.218;16.326;2023-10-13T14:46:15;31.30;46.30
49679;DHT22;35570;48.218;16.326;2023-10-13T14:48:42;31.30;47.60
49679;DHT22;35570;48.218;16.326;2023-10-13T14:51:11;31.30;47.10
49679;DHT22;35570;48.218;16.326;2023-10-13T14:53:43;31.30;47.00
49679;DHT22;35570;48.218;16.326;2023-10-13T14:56:12;31.30;48.00
49679;DHT22;35570;48.218;16.326;2023-10-13T14:58:38;31.20;48.00
49679;DHT22;35570;48.218;16.326;2023-10-13T15:03:36;31.00;79.00
49679;DHT22;35570;48.218;16.326;2023-10-13T15:06:03;30.60;48.00
49679;DHT22;35570;48.218;16.326;2023-10-13T15:08:29;30.60;48.50
49679;DHT22;35570;48.218;16.326;2023-10-13T15:10:54;30.50;49.00
49679;DHT22;35570;48.218;16.326;2023-10-13T15:13:20;30.40;49.00
49679;DHT22;35570;48.218;16.326;2023-10-13T15:15:48;30.20;48.60
49679;DHT22;35570;48.218;16.326;2023-10-13T15:18:13;30.00;49.00
49679;DHT22;35570;48.218;16.326;2023-10-13T15:20:40;29.90;49.80
49679;DHT22;35570;48.218;16.326;2023-10-13T15:23:09;29.80;49.60
49679;DHT22;35570;48.218;16.326;2023-10-13T15:25:40;29.60;49.60
49679;DHT22;35570;48.218;16.326;2023-10-13T15:28:14;29.40;49.80
49679;DHT22;35570;48.218;16.326;2023-10-13T15:30:43;29.20;50.40
49679;DHT22;35570;48.218;16.326;2023-10-13T15:33:12;29.00;50.30
49679;DHT22;35570;48.218;16.326;2023-10-13T15:35:39;28.60;50.00
49679;DHT22;35570;48.218;16.326;2023-10-13T15:38:09;28.50;51.10
49679;DHT22;35570;48.218;16.326;2023-10-13T15:40:43;28.30;51.60
49679;DHT22;35570;48.218;16.326;2023-10-13T15:43:09;28.10;64.90
49679;DHT22;35570;48.218;16.326;2023-10-13T15:45:35;27.90;52.40
49679;DHT22;35570;48.218;16.326;2023-10-13T15:48:08;27.60;52.10
49679;DHT22;35570;48.218;16.326;2023-10-13T15:50:40;27.50;53.20
49679;DHT22;35570;48.218;16.326;2023-10-13T15:53:06;27.40;53.60
49679;DHT22;35570;48.218;16.326;2023-10-13T15:55:36;27.20;53.60
49679;DHT22;35570;48.218;16.326;2023-10-13T15:58:04;27.10;53.90
49679;DHT22;35570;48.218;16.326;2023-10-13T16:00:34;27.00;55.30
49679;DHT22;35570;48.218;16.326;2023-10-13T16:03:00;26.90;54.10
49679;DHT22;35570;48.218;16.326;2023-10-13T16:05:32;26.80;54.60
49679;DHT22;35570;48.218;16.326;2023-10-13T16:08:03;26.80;55.30
49679;DHT22;35570;48.218;16.326;2023-10-13T16:10:29;26.60;54.80
49679;DHT22;35570;48.218;16.326;2023-10-13T16:12:54;26.60;55.70
49679;DHT22;35570;48.218;16.326;2023-10-13T16:15:23;25.70;56.00
49679;DHT22;35570;48.218;16.326;2023-10-13T16:20:19;26.40;56.00
49679;DHT22;35570;48.218;16.326;2023-10-13T16:22:46;26.30;55.50
49679;DHT22;35570;48.218;16.326;2023-10-13T16:25:13;26.20;55.50
49679;DHT22;35570;48.218;16.326;2023-10-13T16:27:43;26.10;55.80
49679;DHT22;35570;48.218;16.326;2023-10-13T16:30:10;26.00;56.30